createdAt,value
2018-07-03T00:00:26.729Z,1.50
2018-07-03T00:02:54.354Z,1.73
2018-07-03T00:05:22.094Z,1.40
2018-07-03T00:07:49.709Z,1.43
2018-07-03T00:10:17.301Z,1.60
2018-07-03T00:12:45.357Z,1.23
2018-07-03T00:15:12.982Z,1.37
2018-07-03T00:17:40.593Z,1.50
2018-07-03T00:20:09.046Z,1.40
2018-07-03T00:22:36.945Z,1.73
2018-07-03T00:25:04.857Z,1.30
2018-07-03T00:27:32.581Z,1.40
2018-07-03T00:30:00.192Z,1.53
2018-07-03T00:32:28.145Z,1.83
2018-07-03T00:34:55.805Z,1.50
2018-07-03T00:37:24.020Z,1.20
2018-07-03T00:39:52.092Z,1.20
2018-07-03T00:42:19.954Z,1.60
2018-07-03T00:44:47.881Z,1.20
2018-07-03T00:47:15.859Z,1.47
2018-07-03T00:49:44.460Z,1.40
2018-07-03T00:52:12.322Z,1.40
2018-07-03T00:54:40.476Z,1.30
2018-07-03T00:57:08.206Z,1.30
2018-07-03T00:59:41.650Z,1.20
2018-07-03T01:02:09.297Z,1.23
2018-07-03T01:04:36.914Z,1.70
2018-07-03T01:07:04.783Z,1.43
2018-07-03T01:09:32.614Z,1.40
2018-07-03T01:12:00.257Z,1.80
2018-07-03T01:14:27.931Z,1.37
2018-07-03T01:16:55.603Z,1.30
2018-07-03T01:19:23.197Z,1.63
2018-07-03T01:21:50.848Z,1.57
2018-07-03T01:24:18.524Z,1.50
2018-07-03T01:26:46.147Z,1.63
2018-07-03T01:29:13.789Z,1.60
2018-07-03T01:31:41.824Z,1.43
2018-07-03T01:34:09.483Z,1.37
2018-07-03T01:36:37.320Z,1.53
2018-07-03T01:39:06.622Z,1.40
2018-07-03T01:41:34.562Z,1.50
2018-07-03T01:44:02.166Z,1.30
2018-07-03T01:46:30.093Z,1.40
2018-07-03T01:48:57.954Z,1.30
2018-07-03T01:51:26.281Z,1.50
2018-07-03T01:53:53.894Z,2.13
2018-07-03T01:56:21.515Z,1.40
2018-07-03T01:58:49.145Z,1.60
2018-07-03T02:01:16.812Z,1.73
2018-07-03T02:03:44.465Z,1.73
2018-07-03T02:06:12.332Z,1.33
2018-07-03T02:08:40.505Z,1.20
2018-07-03T02:11:08.685Z,1.50
2018-07-03T02:13:36.397Z,1.23
2018-07-03T02:16:06.664Z,1.20
2018-07-03T02:18:34.299Z,1.60
2018-07-03T02:21:01.935Z,1.40
2018-07-03T02:23:30.004Z,1.60
2018-07-03T02:25:57.629Z,1.47
2018-07-03T02:28:25.269Z,1.23
2018-07-03T02:30:52.936Z,1.80
2018-07-03T02:33:20.558Z,1.30
2018-07-03T02:35:48.549Z,1.30
2018-07-03T02:38:16.209Z,1.50
2018-07-03T02:40:43.860Z,1.67
2018-07-03T02:43:11.476Z,1.47
2018-07-03T02:45:39.127Z,1.30
2018-07-03T02:48:07.363Z,1.27
2018-07-03T02:50:35.599Z,1.57
2018-07-03T02:53:03.284Z,1.20
2018-07-03T02:55:33.210Z,1.60
2018-07-03T02:58:01.139Z,1.40
2018-07-03T03:00:29.366Z,1.53
2018-07-03T03:02:57.019Z,1.37
2018-07-03T03:05:24.767Z,1.70
2018-07-03T03:07:52.921Z,1.80
2018-07-03T03:10:20.822Z,2.00
2018-07-03T03:12:49.144Z,1.37
2018-07-03T03:15:16.779Z,1.17
2018-07-03T03:17:44.403Z,1.30
2018-07-03T03:20:12.657Z,1.83
2018-07-03T03:22:40.320Z,1.30
2018-07-03T03:25:07.996Z,1.60
2018-07-03T03:27:35.948Z,1.00
2018-07-03T03:30:04.350Z,1.10
2018-07-03T03:32:32.019Z,1.30
2018-07-03T03:34:59.649Z,1.47
2018-07-03T03:37:27.570Z,1.30
2018-07-03T03:39:55.199Z,1.43
2018-07-03T03:42:22.853Z,1.20
2018-07-03T03:44:50.822Z,1.20
2018-07-03T03:47:18.957Z,1.27
2018-07-03T03:49:47.008Z,1.30
2018-07-03T03:52:14.967Z,1.30
2018-07-03T03:54:42.831Z,1.20
2018-07-03T03:57:10.465Z,1.30
2018-07-03T03:59:38.493Z,1.30
2018-07-03T04:02:06.113Z,1.40
2018-07-03T04:04:34.009Z,1.00
2018-07-03T04:07:01.924Z,1.07
2018-07-03T04:09:29.585Z,1.43
2018-07-03T04:11:57.224Z,1.17
2018-07-03T04:14:24.991Z,1.10
2018-07-03T04:16:52.600Z,1.30
2018-07-03T04:19:20.217Z,1.20
2018-07-03T04:21:48.277Z,1.10
2018-07-03T04:24:15.910Z,1.60
2018-07-03T04:26:44.023Z,1.20
2018-07-03T04:29:11.868Z,1.03
2018-07-03T04:31:43.125Z,1.67
2018-07-03T04:34:10.806Z,1.40
2018-07-03T04:36:38.673Z,1.27
2018-07-03T04:39:08.786Z,1.13
2018-07-03T04:41:36.696Z,1.60
2018-07-03T04:44:04.437Z,1.30
2018-07-03T04:46:32.101Z,1.03
2018-07-03T04:48:59.076Z,1.20
2018-07-03T04:51:27.037Z,1.67
2018-07-03T04:53:55.171Z,1.50
2018-07-03T04:56:23.653Z,0.90
2018-07-03T04:58:51.276Z,1.43
2018-07-03T05:01:19.525Z,1.40
2018-07-03T05:03:47.842Z,1.20
2018-07-03T05:06:16.490Z,1.10
2018-07-03T05:08:44.885Z,1.10
2018-07-03T05:11:12.520Z,1.30
2018-07-03T05:13:40.486Z,1.20
2018-07-03T05:16:08.529Z,1.57
2018-07-03T05:18:36.149Z,1.63
2018-07-03T05:21:04.102Z,1.73
2018-07-03T05:23:31.765Z,1.73
2018-07-03T05:25:59.423Z,1.80
2018-07-03T05:28:27.169Z,1.80
2018-07-03T05:30:54.931Z,1.60
2018-07-03T05:33:23.370Z,2.10
2018-07-03T05:35:51.121Z,1.73
2018-07-03T05:38:19.206Z,1.63
2018-07-03T05:40:46.845Z,1.77
2018-07-03T05:43:14.529Z,1.50
2018-07-03T05:45:42.193Z,1.80
2018-07-03T05:48:10.425Z,1.70
2018-07-03T05:50:38.065Z,2.10
2018-07-03T05:53:05.722Z,1.43
2018-07-03T05:55:33.383Z,1.87
2018-07-03T05:58:01.084Z,1.60
2018-07-03T06:00:29.025Z,1.50
2018-07-03T06:02:56.770Z,1.37
2018-07-03T06:05:24.433Z,1.57
2018-07-03T06:07:52.174Z,1.60
2018-07-03T06:10:20.367Z,1.37
2018-07-03T06:12:48.113Z,2.97
2018-07-03T06:15:15.749Z,2.10
2018-07-03T06:17:44.008Z,1.60
2018-07-03T06:20:11.691Z,1.97
2018-07-03T06:22:39.887Z,1.10
2018-07-03T06:25:07.687Z,1.53
2018-07-03T06:27:35.578Z,1.60
2018-07-03T06:30:03.312Z,1.57
2018-07-03T06:32:31.292Z,1.80
2018-07-03T06:34:59.288Z,1.43
2018-07-03T06:37:27.198Z,1.50
2018-07-03T06:39:55.243Z,1.83
2018-07-03T06:42:23.172Z,1.63
2018-07-03T06:44:50.843Z,1.50
2018-07-03T06:47:18.626Z,1.40
2018-07-03T06:49:46.271Z,1.40
2018-07-03T06:52:13.892Z,1.73
2018-07-03T06:54:41.709Z,1.53
2018-07-03T06:57:09.376Z,1.20
2018-07-03T06:59:37.290Z,1.83
2018-07-03T07:02:05.173Z,1.90
2018-07-03T07:04:33.100Z,1.07
2018-07-03T07:07:00.996Z,1.30
2018-07-03T07:09:29.041Z,1.47
2018-07-03T07:11:56.936Z,1.33
2018-07-03T07:14:24.950Z,1.70
2018-07-03T07:16:52.562Z,1.20
2018-07-03T07:19:20.210Z,1.57
2018-07-03T07:21:48.050Z,1.10
2018-07-03T07:24:16.036Z,1.47
2018-07-03T07:26:43.763Z,1.30
2018-07-03T07:29:11.451Z,1.50
2018-07-03T07:31:39.129Z,1.27
2018-07-03T07:34:06.909Z,1.20
2018-07-03T07:36:34.609Z,1.17
2018-07-03T07:39:02.662Z,1.43
2018-07-03T07:41:30.308Z,1.00
2018-07-03T07:43:58.006Z,1.40
2018-07-03T07:48:53.864Z,1.13
2018-07-03T07:51:21.709Z,1.17
2018-07-03T07:53:49.468Z,1.57
2018-07-03T07:56:17.687Z,1.10
2018-07-03T07:58:45.705Z,1.47
2018-07-03T08:01:13.357Z,1.57
2018-07-03T08:03:41.252Z,1.30
2018-07-03T08:06:09.301Z,1.50
2018-07-03T08:08:36.933Z,1.10
2018-07-03T08:11:04.554Z,1.20
2018-07-03T08:13:32.609Z,1.50
2018-07-03T08:16:00.591Z,1.50
2018-07-03T08:18:28.585Z,1.17
2018-07-03T08:20:56.966Z,1.50
2018-07-03T08:23:24.629Z,1.57
2018-07-03T08:25:52.318Z,1.40
2018-07-03T08:28:20.333Z,1.40
2018-07-03T08:30:47.976Z,1.23
2018-07-03T08:33:15.834Z,1.03
2018-07-03T08:35:43.491Z,1.10
2018-07-03T08:38:11.549Z,1.40
2018-07-03T08:40:39.758Z,1.17
2018-07-03T08:43:08.130Z,1.20
2018-07-03T08:45:35.814Z,1.30
2018-07-03T08:48:03.934Z,1.40
2018-07-03T08:50:32.071Z,1.30
2018-07-03T08:52:59.709Z,1.40
2018-07-03T08:55:27.321Z,1.27
2018-07-03T08:57:55.614Z,1.17
2018-07-03T09:00:23.931Z,1.10
2018-07-03T09:02:51.594Z,1.20
2018-07-03T09:05:19.556Z,1.20
2018-07-03T09:07:47.732Z,1.30
2018-07-03T09:10:15.433Z,1.13
2018-07-03T09:12:43.142Z,1.30
2018-07-03T09:15:10.824Z,1.50
2018-07-03T09:17:38.490Z,1.63
2018-07-03T09:20:06.527Z,1.50
2018-07-03T09:22:34.521Z,1.33
2018-07-03T09:25:02.605Z,1.30
2018-07-03T09:27:30.395Z,1.70
2018-07-03T09:29:58.353Z,1.40
2018-07-03T09:32:26.165Z,1.60
2018-07-03T09:34:54.179Z,1.50
2018-07-03T09:37:21.841Z,1.30
2018-07-03T09:39:49.821Z,1.57
2018-07-03T09:42:17.536Z,1.40
2018-07-03T09:44:45.251Z,1.20
2018-07-03T09:47:13.216Z,1.50
2018-07-03T09:49:41.244Z,1.30
2018-07-03T09:52:09.151Z,1.60
2018-07-03T09:54:37.096Z,1.70
2018-07-03T09:57:04.774Z,1.40
2018-07-03T09:59:32.701Z,1.43
2018-07-03T10:02:00.369Z,2.00
2018-07-03T10:04:32.323Z,1.33
2018-07-03T10:07:00.410Z,2.50
2018-07-03T10:09:29.164Z,1.90
2018-07-03T10:11:56.832Z,2.67
2018-07-03T10:14:24.562Z,2.47
2018-07-03T10:16:52.231Z,2.30
2018-07-03T10:19:22.735Z,1.93
2018-07-03T10:21:50.468Z,2.03
2018-07-03T10:24:18.177Z,2.00
2018-07-03T10:26:46.014Z,2.20
2018-07-03T10:29:13.711Z,2.17
2018-07-03T10:31:41.600Z,2.83
2018-07-03T10:34:09.331Z,2.20
2018-07-03T10:36:37.002Z,2.67
2018-07-03T10:39:07.833Z,2.30
2018-07-03T10:41:35.582Z,2.40
2018-07-03T10:44:03.454Z,2.80
2018-07-03T10:46:31.122Z,2.40
2018-07-03T10:48:58.806Z,1.97
2018-07-03T10:51:26.534Z,2.67
2018-07-03T10:53:54.246Z,2.17
2018-07-03T10:56:21.985Z,2.60
2018-07-03T10:58:49.700Z,2.20
2018-07-03T11:01:17.741Z,2.60
2018-07-03T11:03:45.505Z,2.30
2018-07-03T11:06:13.154Z,2.57
2018-07-03T11:08:40.933Z,2.27
2018-07-03T11:11:08.624Z,2.90
2018-07-03T11:13:41.981Z,2.50
2018-07-03T11:16:09.604Z,2.07
2018-07-03T11:18:37.281Z,2.40
2018-07-03T11:21:05.428Z,2.00
2018-07-03T11:23:33.513Z,2.60
2018-07-03T11:26:01.450Z,3.07
2018-07-03T11:28:29.332Z,2.63
2018-07-03T11:30:57.320Z,2.70
2018-07-03T11:33:24.974Z,3.20
2018-07-03T11:35:52.995Z,3.37
2018-07-03T11:38:20.705Z,8.87
2018-07-03T11:40:48.377Z,8.60
2018-07-03T11:43:16.263Z,7.87
2018-07-03T11:45:44.568Z,6.40
2018-07-03T11:48:12.500Z,5.33
2018-07-03T11:50:40.432Z,6.23
2018-07-03T11:53:08.697Z,5.67
2018-07-03T11:55:36.664Z,5.40
2018-07-03T11:58:04.944Z,3.23
2018-07-03T12:00:32.925Z,4.10
2018-07-03T12:03:00.580Z,3.70
2018-07-03T12:05:28.261Z,3.70
2018-07-03T12:07:56.145Z,3.00
2018-07-03T12:10:23.816Z,3.00
2018-07-03T12:12:52.098Z,3.07
2018-07-03T12:15:20.169Z,2.33
2018-07-03T12:17:47.936Z,2.43
2018-07-03T12:20:15.538Z,3.00
2018-07-03T12:22:43.300Z,2.93
2018-07-03T12:25:11.001Z,2.77
2018-07-03T12:27:38.699Z,2.43
2018-07-03T12:30:08.496Z,2.57
2018-07-03T12:32:36.191Z,2.37
2018-07-03T12:35:04.169Z,2.60
2018-07-03T12:37:31.827Z,2.30
2018-07-03T12:39:59.483Z,2.23
2018-07-03T12:42:27.088Z,2.50
2018-07-03T12:44:55.473Z,2.17
2018-07-03T12:47:23.189Z,3.20
2018-07-03T12:49:50.864Z,2.37
2018-07-03T12:52:18.483Z,3.03
2018-07-03T12:54:46.374Z,2.47
2018-07-03T12:57:14.393Z,2.73
2018-07-03T12:59:42.374Z,2.43
2018-07-03T13:02:10.218Z,2.40
2018-07-03T13:04:38.721Z,2.00
2018-07-03T13:07:06.611Z,2.00
2018-07-03T13:09:34.271Z,2.30
2018-07-03T13:12:01.983Z,2.30
2018-07-03T13:14:29.616Z,1.77
2018-07-03T13:16:57.589Z,2.20
2018-07-03T13:19:25.324Z,1.80
2018-07-03T13:21:52.977Z,2.00
2018-07-03T13:24:21.997Z,2.33
2018-07-03T13:26:49.898Z,1.83
2018-07-03T13:29:17.916Z,2.60
2018-07-03T13:31:45.977Z,2.07
2018-07-03T13:34:14.159Z,2.57
2018-07-03T13:36:41.798Z,2.80
2018-07-03T13:39:10.525Z,2.60
2018-07-03T13:41:38.170Z,2.30
2018-07-03T13:44:05.834Z,2.40
2018-07-03T13:46:34.369Z,2.20
2018-07-03T13:49:02.097Z,1.80
2018-07-03T13:51:29.844Z,1.70
2018-07-03T13:53:57.498Z,2.00
2018-07-03T13:56:25.441Z,1.80
2018-07-03T13:58:53.373Z,2.27
2018-07-03T14:01:21.047Z,2.10
2018-07-03T14:03:48.721Z,1.90
2018-07-03T14:06:16.360Z,1.80
2018-07-03T14:08:44.360Z,2.50
2018-07-03T14:11:12.200Z,1.97
2018-07-03T14:13:40.037Z,2.20
2018-07-03T14:16:07.690Z,2.37
2018-07-03T14:18:35.734Z,1.57
2018-07-03T14:21:03.705Z,2.00
2018-07-03T14:23:31.604Z,2.57
2018-07-03T14:26:00.315Z,1.77
2018-07-03T14:28:28.305Z,2.40
2018-07-03T14:30:55.968Z,2.27
2018-07-03T14:33:23.626Z,1.73
2018-07-03T14:35:51.667Z,2.37
2018-07-03T14:38:19.345Z,2.33
2018-07-03T14:40:46.962Z,2.00
2018-07-03T14:43:14.999Z,2.00
2018-07-03T14:45:42.891Z,2.40
2018-07-03T14:48:10.974Z,1.80
2018-07-03T14:50:38.636Z,2.40
2018-07-03T14:53:07.081Z,1.80
2018-07-03T14:55:35.013Z,2.17
2018-07-03T14:58:03.112Z,1.97
2018-07-03T15:00:30.926Z,2.27
2018-07-03T15:02:58.661Z,2.13
2018-07-03T15:05:26.416Z,2.07
2018-07-03T15:07:54.075Z,2.10
2018-07-03T15:10:22.440Z,2.07
2018-07-03T15:12:50.095Z,2.33
2018-07-03T15:15:18.429Z,2.37
2018-07-03T15:17:46.277Z,1.83
2018-07-03T15:20:13.945Z,2.23
2018-07-03T15:22:41.609Z,2.37
2018-07-03T15:25:09.518Z,2.20
2018-07-03T15:27:37.156Z,1.90
2018-07-03T15:30:05.335Z,2.20
2018-07-03T15:32:32.976Z,2.70
2018-07-03T15:35:01.135Z,2.20
2018-07-03T15:37:29.120Z,2.33
2018-07-03T15:39:57.173Z,2.00
2018-07-03T15:42:25.265Z,1.90
2018-07-03T15:45:02.380Z,2.43
2018-07-03T15:47:30.029Z,2.70
2018-07-03T15:49:57.661Z,2.43
2018-07-03T15:52:25.680Z,2.77
2018-07-03T15:54:53.529Z,2.27
2018-07-03T15:57:21.179Z,2.40
2018-07-03T15:59:49.552Z,2.47
2018-07-03T16:02:17.304Z,2.30
2018-07-03T16:05:01.444Z,2.70
2018-07-03T16:07:40.218Z,2.30
2018-07-03T16:10:08.228Z,2.30
2018-07-03T16:12:35.913Z,2.40
2018-07-03T16:15:04.133Z,2.53
2018-07-03T16:17:31.801Z,2.50
2018-07-03T16:20:05.144Z,2.20
2018-07-03T16:22:33.396Z,3.60
2018-07-03T16:25:01.049Z,2.97
2018-07-03T16:27:28.674Z,2.37
2018-07-03T16:29:56.658Z,2.50
2018-07-03T16:32:25.699Z,2.50
2018-07-03T16:34:53.522Z,3.40
2018-07-03T16:37:21.298Z,3.33
2018-07-03T16:39:49.223Z,3.17
2018-07-03T16:42:16.899Z,2.80
2018-07-03T16:44:44.769Z,3.10
2018-07-03T16:47:12.918Z,3.40
2018-07-03T16:49:40.736Z,3.30
2018-07-03T16:52:08.560Z,3.77
2018-07-03T16:54:36.277Z,3.60
2018-07-03T16:57:03.942Z,3.00
2018-07-03T16:59:32.765Z,2.53
2018-07-03T17:02:01.359Z,3.80
2018-07-03T17:04:29.610Z,3.20
2018-07-03T17:06:57.605Z,3.00
2018-07-03T17:09:25.265Z,2.73
2018-07-03T17:11:52.945Z,2.80
2018-07-03T17:14:20.646Z,3.00
2018-07-03T17:16:48.579Z,3.23
2018-07-03T17:19:21.794Z,3.03
2018-07-03T17:21:49.397Z,3.40
2018-07-03T17:24:17.315Z,3.10
2018-07-03T17:26:45.148Z,3.47
2018-07-03T17:29:12.812Z,2.90
2018-07-03T17:31:40.903Z,3.57
2018-07-03T17:34:08.885Z,2.70
2018-07-03T17:36:36.565Z,3.40
2018-07-03T17:39:14.383Z,3.00
2018-07-03T17:41:53.855Z,3.00
2018-07-03T17:44:42.021Z,2.43
2018-07-03T17:47:09.780Z,3.00
2018-07-03T17:49:37.761Z,3.00
2018-07-03T17:52:05.438Z,2.90
2018-07-03T17:54:33.048Z,2.73
2018-07-03T17:57:00.732Z,2.90
2018-07-03T17:59:28.614Z,3.07
2018-07-03T18:01:56.495Z,2.73
2018-07-03T18:04:24.144Z,3.03
2018-07-03T18:06:51.788Z,3.03
2018-07-03T18:09:19.437Z,3.27
2018-07-03T18:11:47.097Z,3.10
2018-07-03T18:14:14.963Z,3.10
2018-07-03T18:16:43.244Z,3.63
2018-07-03T18:19:16.449Z,2.80
2018-07-03T18:21:44.394Z,3.57
2018-07-03T18:24:12.154Z,3.80
2018-07-03T18:26:39.808Z,2.73
2018-07-03T18:29:07.459Z,2.50
2018-07-03T18:31:35.232Z,3.10
2018-07-03T18:34:02.932Z,2.90
2018-07-03T18:36:30.763Z,2.87
2018-07-03T18:38:58.526Z,3.37
2018-07-03T18:41:26.160Z,2.70
2018-07-03T18:43:53.895Z,3.77
2018-07-03T18:46:21.760Z,3.30
2018-07-03T18:48:49.733Z,3.10
2018-07-03T18:51:17.419Z,2.80
2018-07-03T18:53:45.229Z,3.10
2018-07-03T18:56:13.748Z,2.47
2018-07-03T18:58:41.526Z,2.63
2018-07-03T19:01:09.406Z,2.33
2018-07-03T19:03:37.477Z,3.00
2018-07-03T19:06:05.253Z,2.63
2018-07-03T19:08:32.850Z,2.80
2018-07-03T19:11:00.734Z,2.37
2018-07-03T19:13:28.717Z,3.57
2018-07-03T19:15:56.399Z,3.67
2018-07-03T19:18:24.246Z,2.90
2018-07-03T19:20:51.872Z,3.00
2018-07-03T19:23:19.903Z,2.90
2018-07-03T19:25:47.890Z,2.63
2018-07-03T19:28:15.573Z,2.67
2018-07-03T19:30:43.526Z,2.70
2018-07-03T19:33:11.153Z,2.33
2018-07-03T19:35:38.810Z,2.50
2018-07-03T19:38:06.450Z,2.63
2018-07-03T19:40:34.081Z,3.17
2018-07-03T19:43:36.406Z,2.70
2018-07-03T19:46:05.066Z,2.50
2018-07-03T19:48:32.775Z,2.40
2018-07-03T19:51:00.399Z,3.07
2018-07-03T19:53:28.056Z,2.50
2018-07-03T19:55:56.971Z,2.20
2018-07-03T19:58:25.115Z,2.97
2018-07-03T20:00:55.598Z,2.60
2018-07-03T20:03:23.230Z,2.73
2018-07-03T20:05:50.873Z,3.00
2018-07-03T20:08:18.959Z,2.80
2018-07-03T20:10:47.381Z,3.40
2018-07-03T20:13:16.334Z,2.40
2018-07-03T20:15:46.409Z,2.23
2018-07-03T20:18:14.834Z,2.70
2018-07-03T20:20:42.455Z,2.90
2018-07-03T20:23:10.073Z,3.37
2018-07-03T20:25:38.358Z,2.60
2018-07-03T20:28:06.097Z,2.60
2018-07-03T20:30:34.249Z,2.93
2018-07-03T20:33:02.141Z,3.30
2018-07-03T20:35:30.171Z,2.53
2018-07-03T20:37:59.127Z,2.43
2018-07-03T20:40:27.921Z,2.87
2018-07-03T20:42:57.015Z,2.37
2018-07-03T20:45:24.761Z,1.97
2018-07-03T20:47:52.509Z,3.10
2018-07-03T20:50:20.609Z,3.00
2018-07-03T20:52:48.561Z,2.00
2018-07-03T20:55:16.698Z,2.53
2018-07-03T20:57:44.945Z,2.40
2018-07-03T21:00:12.608Z,2.90
2018-07-03T21:02:40.269Z,3.03
2018-07-03T21:05:07.885Z,2.80
2018-07-03T21:07:36.297Z,2.70
2018-07-03T21:10:04.049Z,2.87
2018-07-03T21:12:31.941Z,2.53
2018-07-03T21:15:00.002Z,2.77
2018-07-03T21:17:27.973Z,2.50
2018-07-03T21:19:55.912Z,2.93
2018-07-03T21:22:24.072Z,2.93
2018-07-03T21:24:52.248Z,2.33
2018-07-03T21:27:19.889Z,2.40
2018-07-03T21:29:47.792Z,2.53
2018-07-03T21:32:15.417Z,2.57
2018-07-03T21:34:43.490Z,2.33
2018-07-03T21:37:11.095Z,3.10
2018-07-03T21:39:39.333Z,2.90
2018-07-03T21:42:06.952Z,2.60
2018-07-03T21:44:34.920Z,2.27
2018-07-03T21:47:02.865Z,2.30
2018-07-03T21:49:30.845Z,2.20
2018-07-03T21:51:58.716Z,2.03
2018-07-03T21:54:26.916Z,2.67
2018-07-03T21:56:54.806Z,2.63
2018-07-03T21:59:22.752Z,3.50
2018-07-03T22:01:50.352Z,2.20
2018-07-03T22:04:18.235Z,2.20
2018-07-03T22:06:46.604Z,2.07
2018-07-03T22:09:14.232Z,2.30
2018-07-03T22:11:42.477Z,2.73
2018-07-03T22:14:11.165Z,2.50
2018-07-03T22:16:39.337Z,1.90
2018-07-03T22:19:07.464Z,2.80
2018-07-03T22:21:35.964Z,2.17
2018-07-03T22:24:03.556Z,2.53
2018-07-03T22:26:31.980Z,2.83
2018-07-03T22:28:59.964Z,3.10
2018-07-03T22:31:27.633Z,2.67
2018-07-03T22:33:55.522Z,3.00
2018-07-03T22:36:24.065Z,2.80
2018-07-03T22:38:52.041Z,2.10
2018-07-03T22:41:19.645Z,2.40
2018-07-03T22:43:47.644Z,2.60
2018-07-03T22:46:15.718Z,2.97
2018-07-03T22:48:43.920Z,2.23
2018-07-03T22:51:11.859Z,2.40
2018-07-03T22:53:39.448Z,2.60
2018-07-03T22:56:07.572Z,2.53
2018-07-03T22:58:35.260Z,2.43
2018-07-03T23:01:03.244Z,2.47
2018-07-03T23:03:31.198Z,1.80
2018-07-03T23:05:59.102Z,2.00
2018-07-03T23:08:26.699Z,2.60
2018-07-03T23:10:54.430Z,2.77
2018-07-03T23:13:22.714Z,2.50
2018-07-03T23:15:50.569Z,2.17
2018-07-03T23:18:18.432Z,3.00
2018-07-03T23:20:46.322Z,2.70
2018-07-03T23:23:14.187Z,2.70
2018-07-03T23:25:42.497Z,2.67
2018-07-03T23:28:10.330Z,2.50
2018-07-03T23:30:38.243Z,2.57
2018-07-03T23:33:05.887Z,2.47
2018-07-03T23:35:33.740Z,2.93
2018-07-03T23:38:01.379Z,2.50
2018-07-03T23:40:29.220Z,2.63
2018-07-03T23:42:57.140Z,2.50
2018-07-03T23:45:30.493Z,2.00
2018-07-03T23:48:11.990Z,2.80
2018-07-03T23:50:50.930Z,2.23
2018-07-03T23:53:29.972Z,2.47
2018-07-03T23:56:08.868Z,2.90
2018-07-03T23:58:47.930Z,2.20
